createdAt,value
2022-09-13T00:01:28.157Z,100.00
2022-09-13T00:03:56.994Z,100.00
2022-09-13T00:06:25.872Z,100.00
2022-09-13T00:08:55.051Z,100.00
2022-09-13T00:11:25.940Z,100.00
2022-09-13T00:13:55.134Z,100.00
2022-09-13T00:16:28.323Z,100.00
2022-09-13T00:18:57.980Z,100.00
2022-09-13T00:21:27.940Z,100.00
2022-09-13T00:23:56.870Z,100.00
2022-09-13T00:26:28.205Z,100.00
2022-09-13T00:28:58.755Z,100.00
2022-09-13T00:31:29.975Z,100.00
2022-09-13T00:34:00.811Z,100.00
2022-09-13T00:36:30.107Z,100.00
2022-09-13T00:38:58.725Z,100.00
2022-09-13T00:41:27.009Z,100.00
2022-09-13T00:43:57.272Z,100.00
2022-09-13T00:46:35.379Z,100.00
2022-09-13T00:49:13.020Z,100.00
2022-09-13T00:51:46.934Z,100.00
2022-09-13T00:54:18.789Z,100.00
2022-09-13T00:56:50.569Z,100.00
2022-09-13T00:59:25.223Z,100.00
2022-09-13T01:01:57.645Z,100.00
2022-09-13T01:04:30.190Z,100.00
2022-09-13T01:07:02.187Z,100.00
2022-09-13T01:09:31.664Z,100.00
2022-09-13T01:12:08.461Z,100.00
2022-09-13T01:14:38.568Z,100.00
2022-09-13T01:17:09.952Z,100.00
2022-09-13T01:19:38.590Z,100.00
2022-09-13T01:22:45.621Z,100.00
2022-09-13T01:25:39.875Z,100.00
2022-09-13T01:28:23.613Z,100.00
2022-09-13T01:31:01.439Z,100.00
2022-09-13T01:33:46.781Z,100.00
2022-09-13T01:36:47.885Z,100.00
2022-09-13T01:39:22.178Z,100.00
2022-09-13T01:42:04.010Z,100.00
2022-09-13T01:44:47.642Z,100.00
2022-09-13T01:47:25.978Z,100.00
2022-09-13T01:50:05.988Z,100.00
2022-09-13T01:52:44.010Z,100.00
2022-09-13T01:55:19.340Z,100.00
2022-09-13T01:57:52.710Z,100.00
2022-09-13T02:00:21.085Z,100.00
2022-09-13T02:02:55.894Z,100.00
2022-09-13T02:05:33.581Z,100.00
2022-09-13T02:08:05.857Z,100.00
2022-09-13T02:10:36.613Z,100.00
2022-09-13T02:13:07.675Z,100.00
2022-09-13T02:15:41.611Z,100.00
2022-09-13T02:18:17.411Z,100.00
2022-09-13T02:20:48.954Z,100.00
2022-09-13T02:23:20.002Z,100.00
2022-09-13T02:25:52.067Z,100.00
2022-09-13T02:28:25.323Z,100.00
2022-09-13T02:30:56.033Z,100.00
2022-09-13T02:33:30.427Z,100.00
2022-09-13T02:36:02.903Z,100.00
2022-09-13T02:38:34.647Z,100.00
2022-09-13T02:41:12.970Z,100.00
2022-09-13T02:43:46.360Z,100.00
2022-09-13T02:46:26.161Z,100.00
2022-09-13T02:49:02.380Z,100.00
2022-09-13T02:51:41.017Z,100.00
2022-09-13T02:54:22.938Z,100.00
2022-09-13T02:56:55.542Z,100.00
2022-09-13T02:59:25.633Z,100.00
2022-09-13T03:01:58.346Z,100.00
2022-09-13T03:04:28.620Z,100.00
2022-09-13T03:06:58.203Z,100.00
2022-09-13T03:09:27.103Z,100.00
2022-09-13T03:12:16.560Z,100.00
2022-09-13T03:14:52.663Z,100.00
2022-09-13T03:17:40.174Z,100.00
2022-09-13T03:20:13.754Z,100.00
2022-09-13T03:23:12.262Z,100.00
2022-09-13T03:25:58.119Z,100.00
2022-09-13T03:28:35.764Z,100.00
2022-09-13T03:31:09.853Z,100.00
2022-09-13T03:33:48.301Z,100.00
2022-09-13T03:36:23.570Z,100.00
2022-09-13T03:38:58.712Z,100.00
2022-09-13T03:41:32.967Z,100.00
2022-09-13T03:44:05.099Z,100.00
2022-09-13T03:46:38.835Z,100.00
2022-09-13T03:49:10.374Z,100.00
2022-09-13T03:51:41.250Z,100.00
2022-09-13T03:54:16.191Z,100.00
2022-09-13T03:56:44.922Z,100.00
2022-09-13T03:59:13.236Z,100.00
2022-09-13T04:01:42.014Z,100.00
2022-09-13T04:04:11.201Z,100.00
2022-09-13T04:06:41.633Z,100.00
2022-09-13T04:09:10.142Z,100.00
2022-09-13T04:11:40.729Z,100.00
2022-09-13T04:14:09.149Z,100.00
2022-09-13T04:16:38.791Z,100.00
2022-09-13T04:19:07.502Z,100.00
2022-09-13T04:21:36.603Z,100.00
2022-09-13T04:24:06.689Z,100.00
2022-09-13T04:26:36.175Z,100.00
2022-09-13T04:29:05.522Z,100.00
2022-09-13T04:31:34.097Z,100.00
2022-09-13T04:34:03.382Z,100.00
2022-09-13T04:36:32.323Z,100.00
2022-09-13T04:39:03.039Z,100.00
2022-09-13T04:41:34.875Z,100.00
2022-09-13T04:44:04.457Z,100.00
2022-09-13T04:46:33.495Z,100.00
2022-09-13T04:49:02.304Z,100.00
2022-09-13T04:51:31.281Z,100.00
2022-09-13T04:54:00.572Z,100.00
2022-09-13T04:56:29.203Z,100.00
2022-09-13T04:58:59.040Z,100.00
2022-09-13T05:01:28.129Z,100.00
2022-09-13T05:03:57.197Z,100.00
2022-09-13T05:06:26.548Z,100.00
2022-09-13T05:08:56.850Z,100.00
2022-09-13T05:11:26.779Z,100.00
2022-09-13T05:14:00.070Z,100.00
2022-09-13T05:16:32.692Z,100.00
2022-09-13T05:19:01.741Z,100.00
2022-09-13T05:21:31.451Z,100.00
2022-09-13T05:24:00.960Z,100.00
2022-09-13T05:26:31.569Z,100.00
2022-09-13T05:29:02.368Z,100.00
2022-09-13T05:31:34.723Z,100.00
2022-09-13T05:34:06.335Z,100.00
2022-09-13T05:36:37.926Z,100.00
2022-09-13T05:41:56.310Z,100.00
2022-09-13T05:44:25.239Z,100.00
2022-09-13T05:46:55.807Z,100.00
2022-09-13T05:49:24.151Z,100.00
2022-09-13T05:51:52.633Z,100.00
2022-09-13T05:54:21.215Z,100.00
2022-09-13T05:56:52.617Z,100.00
2022-09-13T05:59:21.163Z,100.00
2022-09-13T06:01:50.239Z,100.00
2022-09-13T06:04:20.537Z,100.00
2022-09-13T06:06:48.930Z,100.00
2022-09-13T06:09:18.826Z,100.00
2022-09-13T06:11:47.506Z,100.00
2022-09-13T06:14:16.702Z,100.00
2022-09-13T06:16:45.250Z,100.00
2022-09-13T06:19:13.616Z,100.00
2022-09-13T06:21:43.772Z,100.00
2022-09-13T06:24:12.462Z,100.00
2022-09-13T06:26:40.953Z,100.00
2022-09-13T06:29:13.134Z,100.00
2022-09-13T06:31:44.898Z,100.00
2022-09-13T06:34:16.309Z,100.00
2022-09-13T06:36:46.684Z,100.00
2022-09-13T06:39:16.004Z,100.00
2022-09-13T06:41:44.789Z,100.00
2022-09-13T06:44:13.395Z,100.00
2022-09-13T06:46:42.138Z,100.00
2022-09-13T06:49:12.077Z,100.00
2022-09-13T06:51:40.593Z,100.00
2022-09-13T06:54:10.699Z,100.00
2022-09-13T06:56:40.354Z,100.00
2022-09-13T06:59:11.255Z,100.00
2022-09-13T07:01:41.602Z,100.00
2022-09-13T07:04:12.670Z,100.00
2022-09-13T07:06:42.829Z,100.00
2022-09-13T07:09:17.314Z,100.00
2022-09-13T07:11:47.423Z,100.00
2022-09-13T07:14:17.469Z,100.00
2022-09-13T07:16:47.557Z,100.00
2022-09-13T07:19:18.350Z,100.00
2022-09-13T07:21:47.443Z,100.00
2022-09-13T07:24:18.061Z,100.00
2022-09-13T07:26:47.154Z,100.00
2022-09-13T07:29:19.232Z,100.00
2022-09-13T07:31:50.018Z,100.00
2022-09-13T07:34:20.786Z,100.00
2022-09-13T07:36:50.517Z,100.00
2022-09-13T07:39:22.894Z,100.00
2022-09-13T07:41:52.067Z,100.00
2022-09-13T07:44:21.051Z,100.00
2022-09-13T07:46:49.824Z,100.00
2022-09-13T07:49:19.930Z,100.00
2022-09-13T07:51:51.471Z,100.00
2022-09-13T07:54:21.920Z,100.00
2022-09-13T07:56:51.982Z,100.00
2022-09-13T07:59:21.011Z,100.00
2022-09-13T08:01:52.267Z,100.00
2022-09-13T08:04:25.489Z,100.00
2022-09-13T08:06:54.620Z,100.00
2022-09-13T08:09:24.694Z,100.00
2022-09-13T08:11:53.944Z,100.00
2022-09-13T08:14:24.439Z,100.00
2022-09-13T08:16:56.968Z,100.00
2022-09-13T08:19:25.876Z,100.00
2022-09-13T08:21:55.432Z,100.00
2022-09-13T08:24:26.932Z,100.00
2022-09-13T08:26:57.662Z,100.00
2022-09-13T08:29:27.263Z,100.00
2022-09-13T08:31:56.058Z,100.00
2022-09-13T08:34:27.636Z,97.45
2022-09-13T08:36:56.452Z,97.37
2022-09-13T08:39:29.271Z,95.20
2022-09-13T08:42:25.918Z,92.92
2022-09-13T08:44:57.895Z,94.54
2022-09-13T08:47:40.306Z,88.25
2022-09-13T08:50:18.494Z,89.21
2022-09-13T08:52:53.582Z,88.29
2022-09-13T08:55:31.499Z,87.51
2022-09-13T08:58:12.967Z,85.40
2022-09-13T09:00:45.437Z,88.20
2022-09-13T09:03:23.445Z,86.54
2022-09-13T09:05:54.478Z,88.21
2022-09-13T09:08:32.370Z,79.17
2022-09-13T09:11:09.240Z,86.29
2022-09-13T09:13:43.061Z,84.81
2022-09-13T09:16:26.833Z,82.36
2022-09-13T09:19:00.235Z,84.34
2022-09-13T09:21:29.151Z,83.26
2022-09-13T09:23:59.498Z,81.81
2022-09-13T09:26:32.503Z,80.45
2022-09-13T09:29:03.325Z,82.96
2022-09-13T09:31:41.226Z,81.46
2022-09-13T09:34:19.355Z,79.89
2022-09-13T09:36:56.037Z,80.75
2022-09-13T09:39:29.948Z,81.60
2022-09-13T09:42:04.487Z,82.50
2022-09-13T09:44:34.721Z,80.99
2022-09-13T09:47:12.113Z,79.28
2022-09-13T09:50:04.449Z,79.48
2022-09-13T09:52:40.204Z,80.36
2022-09-13T09:55:18.303Z,75.32
2022-09-13T09:57:58.005Z,77.88
2022-09-13T10:00:31.492Z,79.22
2022-09-13T10:03:03.551Z,78.95
2022-09-13T10:05:33.605Z,78.68
2022-09-13T10:08:04.087Z,79.56
2022-09-13T10:10:41.767Z,77.60
2022-09-13T10:13:17.558Z,79.76
2022-09-13T10:15:55.482Z,76.30
2022-09-13T10:18:43.354Z,81.50
2022-09-13T10:21:24.138Z,78.55
2022-09-13T10:23:53.543Z,82.02
2022-09-13T10:26:25.750Z,81.90
2022-09-13T10:29:02.290Z,82.13
2022-09-13T10:31:36.717Z,82.33
2022-09-13T10:34:08.539Z,81.73
2022-09-13T10:36:52.896Z,82.43
2022-09-13T10:39:23.816Z,80.31
2022-09-13T10:41:55.863Z,79.67
2022-09-13T10:44:31.346Z,78.34
2022-09-13T10:47:03.213Z,79.58
2022-09-13T10:49:48.655Z,81.08
2022-09-13T10:52:32.915Z,79.75
2022-09-13T10:55:44.033Z,78.39
2022-09-13T10:58:21.208Z,84.20
2022-09-13T11:01:40.774Z,80.65
2022-09-13T11:04:35.295Z,81.68
2022-09-13T11:07:14.434Z,82.48
2022-09-13T11:09:49.145Z,80.33
2022-09-13T11:12:26.131Z,80.04
2022-09-13T11:15:06.526Z,79.98
2022-09-13T11:17:57.347Z,80.10
2022-09-13T11:20:40.153Z,80.69
2022-09-13T11:23:41.824Z,77.42
2022-09-13T11:26:26.930Z,80.30
2022-09-13T11:29:04.939Z,83.12
2022-09-13T11:31:45.014Z,83.12
2022-09-13T11:34:33.458Z,83.32
2022-09-13T11:37:15.133Z,84.11
2022-09-13T11:39:51.546Z,83.83
2022-09-13T11:42:35.899Z,83.63
2022-09-13T11:45:21.917Z,82.39
2022-09-13T11:48:08.026Z,81.61
2022-09-13T11:50:48.195Z,82.37
2022-09-13T11:53:38.496Z,80.74
2022-09-13T11:56:12.498Z,82.71
2022-09-13T11:58:48.831Z,83.41
2022-09-13T12:01:24.442Z,83.67
2022-09-13T12:04:01.114Z,84.60
2022-09-13T12:06:35.422Z,84.54
2022-09-13T12:09:08.833Z,84.51
2022-09-13T12:11:40.379Z,85.32
2022-09-13T12:14:15.782Z,84.82
2022-09-13T12:16:48.902Z,84.93
2022-09-13T12:19:22.433Z,85.66
2022-09-13T12:21:54.186Z,86.30
2022-09-13T12:24:32.031Z,85.66
2022-09-13T12:27:05.672Z,85.96
2022-09-13T12:29:40.003Z,85.64
2022-09-13T12:32:11.962Z,86.06
2022-09-13T12:34:48.763Z,85.68
2022-09-13T12:37:35.426Z,85.44
2022-09-13T12:40:35.317Z,84.22
2022-09-13T12:43:25.695Z,83.84
2022-09-13T12:46:33.595Z,82.03
2022-09-13T12:49:46.210Z,82.16
2022-09-13T12:52:31.941Z,82.27
2022-09-13T12:55:46.113Z,81.42
2022-09-13T12:58:42.567Z,81.69
2022-09-13T13:01:17.118Z,82.76
2022-09-13T13:03:52.884Z,82.30
2022-09-13T13:06:33.642Z,81.28
2022-09-13T13:09:09.004Z,83.26
2022-09-13T13:11:48.311Z,83.27
2022-09-13T13:14:44.190Z,80.54
2022-09-13T13:17:39.610Z,80.17
2022-09-13T13:20:45.192Z,79.38
2022-09-13T13:23:21.940Z,78.46
2022-09-13T13:26:05.801Z,78.92
2022-09-13T13:28:52.932Z,77.50
2022-09-13T13:31:36.652Z,80.15
2022-09-13T13:34:35.305Z,80.95
2022-09-13T13:37:06.194Z,83.17
2022-09-13T13:39:40.346Z,83.15
2022-09-13T13:42:26.429Z,81.10
2022-09-13T13:45:16.329Z,81.36
2022-09-13T13:48:21.028Z,83.74
2022-09-13T13:51:30.065Z,81.47
2022-09-13T13:54:02.945Z,83.29
2022-09-13T13:56:38.401Z,83.97
2022-09-13T13:59:14.963Z,81.88
2022-09-13T14:01:48.854Z,83.10
2022-09-13T14:04:49.101Z,80.63
2022-09-13T14:07:51.088Z,80.10
2022-09-13T14:10:25.681Z,81.93
2022-09-13T14:13:18.885Z,82.14
2022-09-13T14:15:57.779Z,83.07
2022-09-13T14:18:49.111Z,82.99
2022-09-13T14:21:26.518Z,84.08
2022-09-13T14:24:11.277Z,84.16
2022-09-13T14:26:41.206Z,86.34
2022-09-13T14:29:11.545Z,86.71
2022-09-13T14:31:41.548Z,86.93
2022-09-13T14:34:22.006Z,85.92
2022-09-13T14:36:56.075Z,86.71
2022-09-13T14:39:25.040Z,86.96
2022-09-13T14:42:01.684Z,87.85
2022-09-13T14:44:31.537Z,88.65
2022-09-13T14:47:13.653Z,88.55
2022-09-13T14:49:49.287Z,89.03
2022-09-13T14:52:25.634Z,89.59
2022-09-13T14:54:58.119Z,89.56
2022-09-13T14:57:30.651Z,89.98
2022-09-13T15:00:03.518Z,90.19
2022-09-13T15:02:39.112Z,91.23
2022-09-13T15:05:14.513Z,92.90
2022-09-13T15:07:44.489Z,92.96
2022-09-13T15:10:25.601Z,94.72
2022-09-13T15:13:03.837Z,93.99
2022-09-13T15:15:37.877Z,93.13
2022-09-13T15:18:25.286Z,93.43
2022-09-13T15:20:56.546Z,93.94
2022-09-13T15:23:28.406Z,94.89
2022-09-13T15:26:00.331Z,94.77
2022-09-13T15:28:30.327Z,93.90
2022-09-13T15:31:02.365Z,93.36
2022-09-13T15:33:35.711Z,92.66
2022-09-13T15:36:29.106Z,94.79
2022-09-13T15:39:01.064Z,94.09
2022-09-13T15:41:33.244Z,93.33
2022-09-13T15:44:02.173Z,91.37
2022-09-13T15:46:32.030Z,93.89
2022-09-13T15:49:06.107Z,93.02
2022-09-13T15:51:39.049Z,92.68
2022-09-13T15:54:14.141Z,93.34
2022-09-13T15:56:44.896Z,93.79
2022-09-13T15:59:15.770Z,94.84
2022-09-13T16:01:44.779Z,95.21
2022-09-13T16:04:15.071Z,95.34
2022-09-13T16:06:44.395Z,95.44
2022-09-13T16:09:19.720Z,96.12
2022-09-13T16:11:49.897Z,97.06
2022-09-13T16:14:19.787Z,97.52
2022-09-13T16:16:52.456Z,97.67
2022-09-13T16:19:25.495Z,97.50
2022-09-13T16:21:56.154Z,98.60
2022-09-13T16:24:25.018Z,99.02
2022-09-13T16:26:53.840Z,99.51
2022-09-13T16:29:23.217Z,100.00
2022-09-13T16:31:52.680Z,100.00
2022-09-13T16:34:23.423Z,100.00
2022-09-13T16:36:52.292Z,100.00
2022-09-13T16:39:21.560Z,100.00
2022-09-13T16:41:50.093Z,100.00
2022-09-13T16:44:19.009Z,100.00
2022-09-13T16:46:47.952Z,100.00
2022-09-13T16:49:16.711Z,100.00
2022-09-13T16:51:46.719Z,100.00
2022-09-13T16:54:15.258Z,100.00
2022-09-13T16:56:45.241Z,100.00
2022-09-13T16:59:14.531Z,100.00
2022-09-13T17:01:51.733Z,100.00
2022-09-13T17:04:21.127Z,100.00
2022-09-13T17:06:51.621Z,100.00
2022-09-13T17:09:22.776Z,100.00
2022-09-13T17:11:52.864Z,100.00
2022-09-13T17:14:22.711Z,100.00
2022-09-13T17:16:54.739Z,100.00
2022-09-13T17:19:27.163Z,100.00
2022-09-13T17:21:57.758Z,100.00
2022-09-13T17:24:27.300Z,100.00
2022-09-13T17:26:58.052Z,100.00
2022-09-13T17:29:31.096Z,100.00
2022-09-13T17:32:00.947Z,100.00
2022-09-13T17:34:30.857Z,100.00
2022-09-13T17:37:00.945Z,100.00
2022-09-13T17:39:29.435Z,100.00
2022-09-13T17:41:58.224Z,100.00
2022-09-13T17:44:27.384Z,100.00
2022-09-13T17:46:56.119Z,100.00
2022-09-13T17:49:24.730Z,100.00
2022-09-13T17:51:53.033Z,100.00
2022-09-13T17:54:23.360Z,100.00
2022-09-13T17:56:52.433Z,100.00
2022-09-13T17:59:22.915Z,100.00
2022-09-13T18:01:53.639Z,100.00
2022-09-13T18:04:25.028Z,100.00
2022-09-13T18:06:56.253Z,100.00
2022-09-13T18:09:27.280Z,100.00
2022-09-13T18:11:56.584Z,100.00
2022-09-13T18:14:27.857Z,100.00
2022-09-13T18:16:58.181Z,100.00
2022-09-13T18:19:44.921Z,100.00
2022-09-13T18:22:15.229Z,100.00
2022-09-13T18:24:47.197Z,100.00
2022-09-13T18:27:16.691Z,100.00
2022-09-13T18:29:45.781Z,100.00
2022-09-13T18:32:14.396Z,100.00
2022-09-13T18:34:44.381Z,100.00
2022-09-13T18:37:12.933Z,100.00
2022-09-13T18:39:42.844Z,100.00
2022-09-13T18:42:13.344Z,100.00
2022-09-13T18:44:43.379Z,100.00
2022-09-13T18:47:13.251Z,100.00
2022-09-13T18:49:41.791Z,100.00
2022-09-13T18:52:11.254Z,100.00
2022-09-13T18:54:39.748Z,100.00
2022-09-13T18:57:08.556Z,100.00
2022-09-13T18:59:38.839Z,100.00
2022-09-13T19:02:10.647Z,100.00
2022-09-13T19:04:39.275Z,100.00
2022-09-13T19:07:08.551Z,100.00
2022-09-13T19:09:37.436Z,100.00
2022-09-13T19:12:06.466Z,100.00
2022-09-13T19:14:35.438Z,100.00
2022-09-13T19:17:05.540Z,100.00
2022-09-13T19:19:35.626Z,100.00
2022-09-13T19:22:04.251Z,100.00
2022-09-13T19:24:33.886Z,100.00
2022-09-13T19:27:02.752Z,100.00
2022-09-13T19:29:31.797Z,100.00
2022-09-13T19:32:00.950Z,100.00
2022-09-13T19:34:33.264Z,100.00
2022-09-13T19:37:02.535Z,100.00
2022-09-13T19:39:31.541Z,100.00
2022-09-13T19:42:02.000Z,100.00
2022-09-13T19:44:31.253Z,100.00
2022-09-13T19:49:50.862Z,100.00
2022-09-13T19:52:19.550Z,100.00
2022-09-13T19:54:48.287Z,100.00
2022-09-13T19:57:16.862Z,100.00
2022-09-13T19:59:45.612Z,100.00
2022-09-13T20:02:13.997Z,100.00
2022-09-13T20:04:43.104Z,100.00
2022-09-13T20:07:14.504Z,100.00
2022-09-13T20:09:46.958Z,100.00
2022-09-13T20:12:15.937Z,100.00
2022-09-13T20:14:45.090Z,100.00
2022-09-13T20:17:13.556Z,100.00
2022-09-13T20:19:46.433Z,100.00
2022-09-13T20:22:19.845Z,100.00
2022-09-13T20:24:48.870Z,100.00
2022-09-13T20:27:17.267Z,100.00
2022-09-13T20:29:45.602Z,100.00
2022-09-13T20:32:14.521Z,100.00
2022-09-13T20:34:42.931Z,100.00
2022-09-13T20:37:11.666Z,100.00
2022-09-13T20:39:41.559Z,100.00
2022-09-13T20:42:10.127Z,100.00
2022-09-13T20:44:41.114Z,100.00
2022-09-13T20:47:09.986Z,100.00
2022-09-13T20:49:38.473Z,100.00
2022-09-13T20:52:07.007Z,100.00
2022-09-13T20:54:36.658Z,100.00
2022-09-13T20:57:07.348Z,100.00
2022-09-13T20:59:36.058Z,100.00
2022-09-13T21:02:04.613Z,100.00
2022-09-13T21:04:33.177Z,100.00
2022-09-13T21:07:24.413Z,100.00
2022-09-13T21:09:52.864Z,100.00
2022-09-13T21:12:24.567Z,100.00
2022-09-13T21:14:52.815Z,100.00
2022-09-13T21:17:21.383Z,100.00
2022-09-13T21:19:49.553Z,100.00
2022-09-13T21:22:18.078Z,100.00
2022-09-13T21:24:47.563Z,100.00
2022-09-13T21:27:15.958Z,100.00
2022-09-13T21:29:45.678Z,100.00
2022-09-13T21:32:14.616Z,100.00
2022-09-13T21:34:43.570Z,100.00
2022-09-13T21:37:13.045Z,100.00
2022-09-13T21:39:41.730Z,100.00
2022-09-13T21:42:10.538Z,100.00
2022-09-13T21:44:39.955Z,100.00
2022-09-13T21:47:10.498Z,100.00
2022-09-13T21:49:38.988Z,100.00
2022-09-13T21:52:07.998Z,100.00
2022-09-13T21:54:36.777Z,100.00
2022-09-13T21:57:05.485Z,100.00
2022-09-13T21:59:33.935Z,100.00
2022-09-13T22:02:02.440Z,100.00
2022-09-13T22:04:33.206Z,100.00
2022-09-13T22:07:01.454Z,100.00
2022-09-13T22:09:29.689Z,100.00
2022-09-13T22:11:59.241Z,100.00
2022-09-13T22:14:27.531Z,100.00
2022-09-13T22:16:56.081Z,100.00
2022-09-13T22:19:27.004Z,100.00
2022-09-13T22:21:59.196Z,100.00
2022-09-13T22:24:29.500Z,100.00
2022-09-13T22:26:59.344Z,100.00
2022-09-13T22:29:28.738Z,100.00
2022-09-13T22:31:57.737Z,100.00
2022-09-13T22:34:31.059Z,100.00
2022-09-13T22:37:01.337Z,100.00
2022-09-13T22:39:30.539Z,100.00
2022-09-13T22:41:58.924Z,100.00
2022-09-13T22:44:27.715Z,100.00
2022-09-13T22:46:56.306Z,100.00
2022-09-13T22:49:25.309Z,100.00
2022-09-13T22:51:54.103Z,100.00
2022-09-13T22:54:24.665Z,100.00
2022-09-13T22:56:53.128Z,100.00
2022-09-13T22:59:22.583Z,100.00
2022-09-13T23:01:51.647Z,100.00
2022-09-13T23:04:20.282Z,100.00
2022-09-13T23:06:48.901Z,100.00
2022-09-13T23:09:19.544Z,100.00
2022-09-13T23:11:49.762Z,100.00
2022-09-13T23:14:20.581Z,100.00
2022-09-13T23:16:51.358Z,100.00
2022-09-13T23:19:22.615Z,100.00
2022-09-13T23:21:53.390Z,100.00
2022-09-13T23:24:24.370Z,100.00
2022-09-13T23:26:56.009Z,100.00
2022-09-13T23:29:24.873Z,100.00
2022-09-13T23:31:55.181Z,100.00
2022-09-13T23:34:23.805Z,100.00
2022-09-13T23:36:52.599Z,100.00
2022-09-13T23:39:21.865Z,100.00
2022-09-13T23:41:51.117Z,100.00
2022-09-13T23:44:21.144Z,100.00
2022-09-13T23:46:49.546Z,100.00
2022-09-13T23:49:18.475Z,100.00
2022-09-13T23:51:47.325Z,100.00
2022-09-13T23:54:16.345Z,100.00
2022-09-13T23:56:45.599Z,100.00
2022-09-13T23:59:14.646Z,100.00
